Terminal Aerodrome Forecast
Issued by NWS

Home | Current Version | Previous Version | Text Only | Print | Product List | Glossary On
Versions: 1 2 3 4 5 6 7 8 9 10 11 12 13 14 15 16 17 18 19 20
000
FTUS43 KILX 291130
TAFBMI
TAF
KBMI 291130Z 2912/3012 VRB03KT P6SM BKN035
      TEMPO 2912/2914 2SM BR BKN004
     FM291400 30004KT P6SM BKN025
     FM291700 28005KT P6SM VCTS SCT040CB BKN050 PROB30 2921/3003 4SM
      TSRA OVC025CB
     FM300600 VRB03KT P6SM BKN035
     FM300900 VRB03KT 2SM BR BKN003=

USA.gov is the U.S. government's official web portal to all federal, state and local government web resources and services.